createdAt,value
2018-02-21T00:02:04.694Z,22.33
2018-02-21T00:04:31.269Z,22.30
2018-02-21T00:06:57.837Z,22.24
2018-02-21T00:09:24.559Z,22.29
2018-02-21T00:11:51.140Z,22.25
2018-02-21T00:14:17.677Z,22.15
2018-02-21T00:16:44.291Z,21.94
2018-02-21T00:19:10.920Z,21.81
2018-02-21T00:21:37.457Z,21.87
2018-02-21T00:24:04.018Z,21.92
2018-02-21T00:26:30.577Z,22.01
2018-02-21T00:28:57.132Z,22.05
2018-02-21T00:31:23.707Z,22.08
2018-02-21T00:33:50.271Z,22.11
2018-02-21T00:36:16.865Z,22.14
2018-02-21T00:38:43.454Z,22.14
2018-02-21T00:41:10.056Z,22.14
2018-02-21T00:43:36.623Z,22.11
2018-02-21T00:46:03.243Z,22.16
2018-02-21T00:48:29.814Z,22.17
2018-02-21T00:50:56.399Z,22.19
2018-02-21T00:53:22.966Z,22.21
2018-02-21T00:55:49.525Z,22.20
2018-02-21T00:58:16.090Z,22.22
2018-02-21T01:00:42.665Z,22.20
2018-02-21T01:03:09.256Z,22.21
2018-02-21T01:05:35.951Z,22.23
2018-02-21T01:08:02.528Z,22.26
2018-02-21T01:10:29.113Z,22.23
2018-02-21T01:12:55.677Z,22.23
2018-02-21T01:15:22.262Z,22.24
2018-02-21T01:17:48.876Z,22.24
2018-02-21T01:20:15.468Z,22.25
2018-02-21T01:22:42.108Z,22.26
2018-02-21T01:25:08.675Z,22.26
2018-02-21T01:27:35.250Z,22.26
2018-02-21T01:30:03.034Z,22.25
2018-02-21T01:32:29.703Z,22.23
2018-02-21T01:34:56.259Z,22.22
2018-02-21T01:37:22.917Z,22.13
2018-02-21T01:39:49.513Z,21.87
2018-02-21T01:42:16.149Z,21.67
2018-02-21T01:44:42.746Z,21.64
2018-02-21T01:47:09.326Z,21.73
2018-02-21T01:49:35.927Z,21.83
2018-02-21T01:52:02.508Z,21.91
2018-02-21T01:54:29.090Z,21.94
2018-02-21T01:56:55.743Z,21.98
2018-02-21T01:59:22.335Z,22.03
2018-02-21T02:01:48.908Z,22.04
2018-02-21T02:04:15.504Z,22.08
2018-02-21T02:06:42.136Z,22.11
2018-02-21T02:09:08.770Z,22.09
2018-02-21T02:11:35.378Z,22.13
2018-02-21T02:14:01.989Z,22.13
2018-02-21T02:16:28.690Z,22.14
2018-02-21T02:18:55.261Z,22.15
2018-02-21T02:21:21.844Z,22.15
2018-02-21T02:23:48.425Z,22.16
2018-02-21T02:26:15.085Z,22.17
2018-02-21T02:28:41.719Z,22.17
2018-02-21T02:31:08.337Z,22.16
2018-02-21T02:33:35.015Z,22.17
2018-02-21T02:36:01.578Z,22.20
2018-02-21T02:38:28.147Z,22.19
2018-02-21T02:40:54.725Z,22.18
2018-02-21T02:43:21.281Z,22.23
2018-02-21T02:45:47.881Z,22.20
2018-02-21T02:48:14.483Z,22.20
2018-02-21T02:50:41.205Z,22.19
2018-02-21T02:53:07.763Z,22.10
2018-02-21T02:55:34.338Z,22.01
2018-02-21T02:58:00.899Z,21.80
2018-02-21T03:00:27.462Z,21.81
2018-02-21T03:02:54.133Z,21.88
2018-02-21T03:05:20.748Z,21.96
2018-02-21T03:07:47.341Z,21.96
2018-02-21T03:10:14.007Z,21.98
2018-02-21T03:12:40.590Z,22.00
2018-02-21T03:15:07.157Z,22.05
2018-02-21T03:17:33.724Z,22.06
2018-02-21T03:20:00.285Z,22.07
2018-02-21T03:22:26.849Z,22.05
2018-02-21T03:24:53.408Z,22.08
2018-02-21T03:27:20.053Z,22.08
2018-02-21T03:29:46.615Z,22.07
2018-02-21T03:32:13.215Z,22.11
2018-02-21T03:34:39.822Z,22.11
2018-02-21T03:37:06.482Z,22.10
2018-02-21T03:39:33.037Z,22.10
2018-02-21T03:41:59.595Z,22.10
2018-02-21T03:44:26.176Z,22.09
2018-02-21T03:46:52.737Z,22.11
2018-02-21T03:49:19.362Z,22.08
2018-02-21T03:51:45.927Z,22.00
2018-02-21T03:54:12.562Z,21.83
2018-02-21T03:56:39.205Z,21.81
2018-02-21T03:59:05.774Z,21.88
2018-02-21T04:01:32.389Z,21.93
2018-02-21T04:03:59.003Z,21.90
2018-02-21T04:06:25.624Z,21.98
2018-02-21T04:08:52.242Z,22.01
2018-02-21T04:11:18.803Z,22.00
2018-02-21T04:13:45.416Z,21.68
2018-02-21T04:16:11.981Z,21.11
2018-02-21T04:18:38.554Z,20.85
2018-02-21T04:21:05.210Z,20.27
2018-02-21T04:23:31.822Z,20.28
2018-02-21T04:25:58.397Z,20.29
2018-02-21T04:28:24.961Z,20.23
2018-02-21T04:30:51.635Z,20.12
2018-02-21T04:33:18.241Z,19.83
2018-02-21T04:35:44.823Z,19.93
2018-02-21T04:38:11.458Z,20.38
2018-02-21T04:40:38.183Z,20.85
2018-02-21T04:43:04.788Z,21.11
2018-02-21T04:45:31.436Z,21.25
2018-02-21T04:47:58.154Z,21.32
2018-02-21T04:50:24.626Z,21.41
2018-02-21T04:52:51.202Z,21.45
2018-02-21T04:55:17.845Z,21.51
2018-02-21T04:57:44.416Z,21.53
2018-02-21T05:00:11.095Z,21.50
2018-02-21T05:02:37.800Z,21.43
2018-02-21T05:05:04.412Z,21.29
2018-02-21T05:07:31.089Z,21.41
2018-02-21T05:09:57.680Z,21.50
2018-02-21T05:12:24.283Z,21.53
2018-02-21T05:14:50.836Z,21.67
2018-02-21T05:17:17.419Z,21.64
2018-02-21T05:19:44.021Z,21.62
2018-02-21T05:22:10.583Z,21.88
2018-02-21T05:24:37.232Z,21.93
2018-02-21T05:27:03.807Z,21.85
2018-02-21T05:29:30.385Z,21.86
2018-02-21T05:31:57.005Z,21.82
2018-02-21T05:34:23.574Z,21.85
2018-02-21T05:36:50.138Z,21.86
2018-02-21T05:39:16.714Z,21.85
2018-02-21T05:41:43.384Z,21.90
2018-02-21T05:44:10.024Z,21.91
2018-02-21T05:46:36.593Z,21.91
2018-02-21T05:49:03.208Z,21.90
2018-02-21T05:51:29.857Z,21.92
2018-02-21T05:53:56.464Z,21.93
2018-02-21T05:56:23.114Z,21.97
2018-02-21T05:58:49.686Z,21.97
2018-02-21T06:01:16.259Z,22.00
2018-02-21T06:03:42.897Z,21.98
2018-02-21T06:06:09.524Z,22.00
2018-02-21T06:08:36.083Z,21.92
2018-02-21T06:11:02.714Z,21.88
2018-02-21T06:13:29.292Z,21.85
2018-02-21T06:15:57.807Z,21.86
2018-02-21T07:59:56.589Z,23.30
2018-02-21T08:02:33.217Z,23.20
2018-02-21T08:05:05.861Z,23.13
2018-02-21T08:07:32.441Z,23.00
2018-02-21T08:09:59.144Z,23.06
2018-02-21T08:12:25.936Z,23.27
2018-02-21T08:14:52.638Z,23.10
2018-02-21T08:17:19.219Z,23.11
2018-02-21T08:19:45.838Z,23.12
2018-02-21T08:22:12.412Z,23.07
2018-02-21T08:24:39.262Z,23.01
2018-02-21T08:27:05.834Z,23.25
2018-02-21T08:29:32.460Z,23.19
2018-02-21T08:31:59.058Z,23.16
2018-02-21T08:34:25.637Z,23.18
2018-02-21T08:36:52.308Z,23.07
2018-02-21T08:39:18.900Z,23.19
2018-02-21T08:41:45.495Z,23.49
2018-02-21T08:44:12.073Z,23.59
2018-02-21T08:46:38.653Z,23.42
2018-02-21T08:49:05.259Z,23.31
2018-02-21T08:51:31.948Z,23.47
2018-02-21T08:53:58.560Z,23.48
2018-02-21T08:56:25.285Z,23.41
2018-02-21T08:58:51.961Z,23.42
2018-02-21T09:01:18.535Z,23.34
2018-02-21T09:03:45.210Z,23.48
2018-02-21T09:06:11.796Z,23.40
2018-02-21T09:08:38.380Z,23.52
2018-02-21T09:11:04.977Z,23.46
2018-02-21T09:13:31.882Z,23.46
2018-02-21T09:15:58.470Z,23.46
2018-02-21T09:18:25.176Z,23.54
2018-02-21T09:20:51.797Z,23.73
2018-02-21T09:23:18.517Z,23.60
2018-02-21T09:25:45.150Z,23.55
2018-02-21T09:28:11.846Z,23.59
2018-02-21T09:30:39.524Z,23.72
2018-02-21T09:33:06.175Z,23.49
2018-02-21T09:35:32.807Z,23.72
2018-02-21T09:37:59.484Z,23.71
2018-02-21T09:40:26.132Z,23.56
2018-02-21T09:42:52.792Z,23.55
2018-02-21T09:45:19.403Z,23.58
2018-02-21T09:47:46.040Z,23.73
2018-02-21T09:50:12.740Z,23.73
2018-02-21T09:52:39.357Z,23.53
2018-02-21T09:55:06.005Z,23.21
2018-02-21T09:57:32.722Z,23.05
2018-02-21T09:59:59.347Z,23.01
2018-02-21T10:02:25.952Z,23.02
2018-02-21T10:04:52.568Z,22.98
2018-02-21T10:07:19.250Z,23.03
2018-02-21T10:09:45.941Z,23.12
2018-02-21T10:12:12.961Z,23.09
2018-02-21T10:14:39.961Z,23.24
2018-02-21T10:17:06.551Z,23.24
2018-02-21T10:19:33.166Z,23.21
2018-02-21T10:21:59.828Z,23.33
2018-02-21T10:24:26.472Z,23.42
2018-02-21T10:26:53.061Z,23.41
2018-02-21T10:29:19.685Z,23.54
2018-02-21T10:31:46.328Z,23.38
2018-02-21T10:34:13.018Z,23.37
2018-02-21T10:36:39.620Z,23.51
2018-02-21T10:39:06.264Z,23.52
2018-02-21T10:41:32.961Z,23.69
2018-02-21T10:43:59.667Z,23.39
2018-02-21T10:46:26.255Z,23.42
2018-02-21T10:48:52.951Z,23.34
2018-02-21T10:51:19.548Z,23.39
2018-02-21T10:53:46.217Z,23.48
2018-02-21T10:56:13.214Z,23.52
2018-02-21T10:58:39.803Z,23.58
2018-02-21T11:01:06.428Z,23.54
2018-02-21T11:03:33.111Z,23.47
2018-02-21T11:05:59.790Z,23.50
2018-02-21T11:08:26.357Z,23.48
2018-02-21T11:10:52.998Z,23.48
2018-02-21T11:13:19.609Z,23.52
2018-02-21T11:15:46.336Z,23.45
2018-02-21T11:18:13.044Z,23.54
2018-02-21T11:20:39.715Z,23.70
2018-02-21T11:23:06.306Z,23.62
2018-02-21T11:25:32.898Z,23.77
2018-02-21T11:27:59.621Z,23.66
2018-02-21T11:30:26.353Z,23.64
2018-02-21T11:32:52.929Z,23.57
2018-02-21T11:35:19.569Z,23.49
2018-02-21T11:37:46.214Z,23.55
2018-02-21T11:40:12.801Z,23.58
2018-02-21T11:42:39.467Z,23.60
2018-02-21T11:45:06.205Z,23.53
2018-02-21T11:47:32.835Z,23.54
2018-02-21T11:49:59.494Z,23.52
2018-02-21T11:52:26.196Z,23.53
2018-02-21T11:54:52.833Z,23.74
2018-02-21T11:57:19.582Z,23.58
2018-02-21T11:59:46.191Z,23.65
2018-02-21T12:02:13.006Z,23.57
2018-02-21T12:04:39.602Z,23.59
2018-02-21T12:07:06.180Z,23.54
2018-02-21T12:09:32.799Z,23.68
2018-02-21T12:11:59.384Z,23.84
2018-02-21T12:14:25.959Z,23.79
2018-02-21T12:16:52.535Z,23.67
2018-02-21T12:19:19.131Z,23.57
2018-02-21T12:21:45.809Z,23.58
2018-02-21T12:24:13.451Z,23.74
2018-02-21T12:26:40.066Z,23.80
2018-02-21T12:29:06.699Z,24.01
2018-02-21T12:31:33.358Z,23.81
2018-02-21T12:34:00.028Z,23.70
2018-02-21T12:36:26.635Z,23.81
2018-02-21T12:38:53.287Z,23.69
2018-02-21T12:41:19.953Z,23.78
2018-02-21T12:43:49.422Z,23.86
2018-02-21T12:46:16.073Z,23.93
2018-02-21T12:48:42.674Z,23.75
2018-02-21T12:51:09.300Z,23.83
2018-02-21T12:53:35.886Z,23.80
2018-02-21T12:56:03.047Z,23.69
2018-02-21T12:58:29.627Z,23.67
2018-02-21T13:00:56.369Z,23.65
2018-02-21T13:03:22.947Z,23.70
2018-02-21T13:05:49.697Z,23.68
2018-02-21T13:08:16.384Z,23.74
2018-02-21T13:10:42.972Z,23.72
2018-02-21T13:13:09.586Z,23.73
2018-02-21T13:15:36.282Z,23.50
2018-02-21T13:18:02.898Z,23.79
2018-02-21T13:20:30.647Z,23.35
2018-02-21T13:22:57.460Z,23.54
2018-02-21T13:25:24.137Z,23.64
2018-02-21T13:27:50.752Z,23.61
2018-02-21T13:30:17.492Z,23.53
2018-02-21T13:32:44.036Z,23.52
2018-02-21T13:35:10.768Z,23.59
2018-02-21T13:37:37.459Z,23.82
2018-02-21T13:40:04.075Z,23.75
2018-02-21T13:42:30.855Z,23.53
2018-02-21T13:44:57.426Z,23.75
2018-02-21T13:47:24.146Z,23.72
2018-02-21T13:49:50.802Z,23.69
2018-02-21T13:52:17.423Z,23.85
2018-02-21T13:54:43.993Z,23.90
2018-02-21T13:57:10.972Z,23.68
2018-02-21T13:59:37.624Z,23.69
2018-02-21T14:02:04.259Z,23.75
2018-02-21T14:04:30.900Z,23.72
2018-02-21T14:06:57.526Z,23.75
2018-02-21T14:09:24.191Z,23.79
2018-02-21T14:11:51.667Z,23.87
2018-02-21T14:14:18.230Z,23.69
2018-02-21T14:16:44.860Z,23.63
2018-02-21T14:19:11.534Z,23.61
2018-02-21T14:21:38.130Z,23.59
2018-02-21T14:24:04.760Z,23.67
2018-02-21T14:26:31.438Z,23.61
2018-02-21T14:28:58.110Z,23.58
2018-02-21T14:31:25.828Z,23.64
2018-02-21T14:33:52.429Z,23.64
2018-02-21T14:36:19.035Z,23.89
2018-02-21T14:38:45.626Z,24.05
2018-02-21T14:41:12.306Z,24.15
2018-02-21T14:43:41.386Z,23.93
2018-02-21T14:46:09.367Z,23.89
2018-02-21T14:48:35.988Z,23.59
2018-02-21T14:51:02.577Z,23.59
2018-02-21T14:53:29.201Z,23.51
2018-02-21T14:55:55.789Z,23.52
2018-02-21T14:58:22.372Z,23.51
2018-02-21T15:00:49.340Z,23.45
2018-02-21T15:03:16.005Z,23.44
2018-02-21T15:05:42.584Z,23.47
2018-02-21T15:08:09.451Z,23.45
2018-02-21T15:10:36.033Z,23.53
2018-02-21T15:13:02.628Z,23.49
2018-02-21T15:15:29.211Z,23.58
2018-02-21T15:17:55.823Z,23.41
2018-02-21T15:20:22.481Z,23.41
2018-02-21T15:22:49.068Z,23.41
2018-02-21T15:25:15.641Z,23.36
2018-02-21T15:27:42.337Z,23.33
2018-02-21T15:30:08.945Z,23.34
2018-02-21T15:32:35.516Z,23.48
2018-02-21T15:35:02.094Z,23.38
2018-02-21T15:37:28.664Z,23.28
2018-02-21T15:39:55.228Z,23.46
2018-02-21T15:42:21.846Z,23.36
2018-02-21T15:44:48.524Z,23.30
2018-02-21T15:47:15.104Z,23.36
2018-02-21T15:49:41.993Z,23.31
2018-02-21T15:52:08.691Z,23.23
2018-02-21T15:54:35.344Z,23.16
2018-02-21T15:57:01.925Z,23.16
2018-02-21T15:59:28.560Z,23.17
2018-02-21T16:01:55.126Z,23.18
2018-02-21T16:04:21.745Z,23.13
2018-02-21T16:06:50.816Z,23.16
2018-02-21T16:22:54.812Z,23.14
2018-02-21T16:25:21.736Z,23.09
2018-02-21T16:27:48.328Z,23.10
2018-02-21T16:30:15.275Z,23.16
2018-02-21T16:32:41.954Z,23.08
2018-02-21T16:35:08.612Z,23.01
2018-02-21T16:37:35.240Z,23.09
2018-02-21T16:40:01.877Z,23.00
2018-02-21T16:42:28.467Z,22.80
2018-02-21T16:44:55.100Z,22.92
2018-02-21T16:47:21.738Z,22.99
2018-02-21T16:49:48.375Z,23.00
2018-02-21T16:52:14.954Z,23.06
2018-02-21T16:54:41.584Z,22.95
2018-02-21T16:57:08.172Z,22.95
2018-02-21T16:59:34.802Z,22.95
2018-02-21T17:02:01.453Z,22.96
2018-02-21T17:04:28.064Z,22.97
2018-02-21T17:06:54.633Z,22.94
2018-02-21T17:09:21.217Z,22.90
2018-02-21T17:11:47.785Z,22.92
2018-02-21T17:14:14.366Z,22.94
2018-02-21T17:16:40.986Z,23.02
2018-02-21T17:19:07.546Z,22.97
2018-02-21T17:21:34.159Z,22.90
2018-02-21T17:24:00.829Z,22.91
2018-02-21T17:26:27.459Z,22.89
2018-02-21T17:28:54.065Z,22.88
2018-02-21T17:31:20.686Z,22.86
2018-02-21T17:33:47.257Z,22.90
2018-02-21T17:36:13.811Z,22.87
2018-02-21T17:38:40.388Z,22.88
2018-02-21T17:41:06.948Z,22.85
2018-02-21T17:43:33.512Z,22.87
2018-02-21T17:46:00.107Z,22.82
2018-02-21T17:48:26.695Z,22.83
2018-02-21T17:50:53.253Z,22.81
2018-02-21T17:53:19.884Z,22.78
2018-02-21T17:55:46.453Z,22.64
2018-02-21T17:58:13.111Z,22.51
2018-02-21T18:00:39.688Z,22.21
2018-02-21T18:03:06.279Z,22.20
2018-02-21T18:05:32.844Z,22.23
2018-02-21T18:07:59.445Z,22.47
2018-02-21T18:10:26.012Z,22.43
2018-02-21T18:12:52.616Z,22.47
2018-02-21T18:15:19.208Z,22.55
2018-02-21T18:17:45.779Z,22.56
2018-02-21T18:20:12.376Z,22.59
2018-02-21T18:22:38.961Z,22.63
2018-02-21T18:25:05.560Z,22.66
2018-02-21T18:27:32.146Z,22.68
2018-02-21T18:29:58.763Z,22.71
2018-02-21T18:32:25.331Z,22.74
2018-02-21T18:34:51.956Z,22.74
2018-02-21T18:37:18.511Z,22.77
2018-02-21T18:39:45.079Z,22.76
2018-02-21T18:42:11.641Z,22.80
2018-02-21T18:44:38.257Z,22.94
2018-02-21T18:47:04.847Z,22.83
2018-02-21T18:49:31.444Z,22.78
2018-02-21T18:51:58.007Z,22.76
2018-02-21T18:54:24.647Z,22.74
2018-02-21T18:56:51.208Z,22.73
2018-02-21T18:59:17.778Z,22.68
2018-02-21T19:01:44.403Z,22.68
2018-02-21T19:04:10.965Z,22.66
2018-02-21T19:06:37.590Z,22.66
2018-02-21T19:09:04.197Z,22.66
2018-02-21T19:11:30.753Z,22.63
2018-02-21T19:13:57.319Z,22.65
2018-02-21T19:16:23.924Z,22.66
2018-02-21T19:18:50.496Z,22.67
2018-02-21T19:21:17.098Z,22.63
2018-02-21T19:23:43.687Z,22.62
2018-02-21T19:26:10.227Z,22.63
2018-02-21T19:28:36.810Z,22.61
2018-02-21T19:31:03.404Z,22.61
2018-02-21T19:33:30.010Z,22.63
2018-02-21T19:35:56.584Z,22.62
2018-02-21T19:38:23.201Z,22.62
2018-02-21T19:40:49.765Z,22.64
2018-02-21T19:43:16.328Z,22.60
2018-02-21T19:45:42.981Z,22.60
2018-02-21T19:48:09.569Z,22.58
2018-02-21T19:50:36.130Z,22.62
2018-02-21T19:53:02.752Z,22.58
2018-02-21T19:55:29.313Z,22.61
2018-02-21T19:57:55.972Z,22.61
2018-02-21T20:00:22.589Z,22.59
2018-02-21T20:02:49.150Z,22.59
2018-02-21T20:05:15.734Z,22.58
2018-02-21T20:07:42.274Z,22.59
2018-02-21T20:10:08.877Z,22.60
2018-02-21T20:12:35.433Z,22.56
2018-02-21T20:15:02.044Z,22.59
2018-02-21T20:17:28.626Z,22.55
2018-02-21T20:19:55.218Z,22.56
2018-02-21T20:22:21.805Z,22.55
2018-02-21T20:24:48.368Z,22.56
2018-02-21T20:27:15.055Z,22.55
2018-02-21T20:29:41.624Z,22.56
2018-02-21T20:32:08.177Z,22.54
2018-02-21T20:34:34.742Z,22.53
2018-02-21T20:37:01.306Z,22.55
2018-02-21T20:39:27.940Z,22.54
2018-02-21T20:41:54.512Z,22.54
2018-02-21T20:44:21.103Z,22.53
2018-02-21T20:46:47.715Z,22.54
2018-02-21T20:49:14.274Z,22.54
2018-02-21T20:51:40.827Z,22.53
2018-02-21T20:54:07.447Z,22.52
2018-02-21T20:56:34.032Z,22.54
2018-02-21T20:59:00.637Z,22.53
2018-02-21T21:01:27.258Z,22.55
2018-02-21T21:03:53.824Z,22.55
2018-02-21T21:06:20.429Z,22.52
2018-02-21T21:08:47.020Z,22.52
2018-02-21T21:11:13.583Z,22.53
2018-02-21T21:13:40.151Z,22.48
2018-02-21T21:16:06.727Z,22.44
2018-02-21T21:18:33.425Z,22.33
2018-02-21T21:20:59.982Z,22.18
2018-02-21T21:23:26.585Z,22.18
2018-02-21T21:25:53.192Z,22.31
2018-02-21T21:28:19.757Z,22.35
2018-02-21T21:30:46.319Z,22.38
2018-02-21T21:33:12.884Z,22.44
2018-02-21T21:35:39.471Z,22.49
2018-02-21T21:38:06.092Z,22.48
2018-02-21T21:40:32.657Z,22.56
2018-02-21T21:42:59.223Z,22.57
2018-02-21T21:45:25.840Z,22.57
2018-02-21T21:47:52.406Z,22.60
2018-02-21T21:50:18.969Z,22.57
2018-02-21T21:52:45.529Z,22.60
2018-02-21T21:55:12.097Z,22.62
2018-02-21T21:57:38.707Z,22.66
2018-02-21T22:00:05.312Z,22.67
2018-02-21T22:02:31.880Z,22.65
2018-02-21T22:04:58.453Z,22.68
2018-02-21T22:07:25.009Z,22.70
2018-02-21T22:09:51.570Z,22.73
2018-02-21T22:12:18.144Z,22.69
2018-02-21T22:14:44.705Z,22.75
2018-02-21T22:17:11.265Z,22.75
2018-02-21T22:19:37.902Z,22.75
2018-02-21T22:22:04.465Z,22.76
2018-02-21T22:24:31.037Z,22.76
2018-02-21T22:26:57.618Z,22.74
2018-02-21T22:29:24.191Z,22.77
2018-02-21T22:31:50.753Z,22.80
2018-02-21T22:34:17.355Z,22.77
2018-02-21T22:36:43.936Z,22.77
2018-02-21T22:39:10.724Z,22.77
2018-02-21T22:41:37.291Z,22.76
2018-02-21T22:44:03.841Z,22.71
2018-02-21T22:46:30.487Z,22.68
2018-02-21T22:48:57.049Z,22.64
2018-02-21T22:51:23.627Z,22.65
2018-02-21T22:53:50.195Z,22.67
2018-02-21T22:56:16.757Z,22.67
2018-02-21T22:58:43.360Z,22.63
2018-02-21T23:01:09.923Z,22.65
2018-02-21T23:03:36.488Z,22.64
2018-02-21T23:06:03.083Z,22.63
2018-02-21T23:08:29.679Z,22.63
2018-02-21T23:10:56.261Z,22.61
2018-02-21T23:13:22.944Z,22.63
2018-02-21T23:15:49.509Z,22.59
2018-02-21T23:18:16.067Z,22.58
2018-02-21T23:20:42.679Z,22.59
2018-02-21T23:23:09.239Z,22.59
2018-02-21T23:25:35.848Z,22.59
2018-02-21T23:28:02.444Z,22.55
2018-02-21T23:30:29.123Z,22.57
2018-02-21T23:32:55.722Z,22.54
2018-02-21T23:35:22.317Z,22.52
2018-02-21T23:37:48.922Z,22.52
2018-02-21T23:40:15.526Z,22.52
2018-02-21T23:42:42.101Z,22.56
2018-02-21T23:45:08.661Z,22.52
2018-02-21T23:47:35.264Z,22.52
2018-02-21T23:50:01.873Z,22.49
2018-02-21T23:52:28.435Z,22.49
2018-02-21T23:54:54.999Z,22.43
2018-02-21T23:57:21.567Z,22.26
2018-02-21T23:59:48.233Z,22.13
